sensor_id;sensor_type;location;lat;lon;timestamp;pressure;altitude;pressure_sealevel;temperature;humidity
29825;BME280;16713;52.916;12.834;2024-01-11T00:01:45;102491.41;;;-4.73;68.67
29825;BME280;16713;52.916;12.834;2024-01-11T00:04:12;102492.38;;;-4.67;68.27
29825;BME280;16713;52.916;12.834;2024-01-11T00:06:43;102507.75;;;-4.56;68.23
29825;BME280;16713;52.916;12.834;2024-01-11T00:09:10;102499.25;;;-4.53;68.47
29825;BME280;16713;52.916;12.834;2024-01-11T00:11:37;102496.34;;;-4.52;67.36
29825;BME280;16713;52.916;12.834;2024-01-11T00:14:04;102498.44;;;-4.54;68.66
29825;BME280;16713;52.916;12.834;2024-01-11T00:16:30;102485.38;;;-4.50;68.74
29825;BME280;16713;52.916;12.834;2024-01-11T00:18:57;102489.91;;;-4.51;68.96
29825;BME280;16713;52.916;12.834;2024-01-11T00:21:23;102484.31;;;-4.49;68.29
29825;BME280;16713;52.916;12.834;2024-01-11T00:23:50;102464.34;;;-4.53;68.90
29825;BME280;16713;52.916;12.834;2024-01-11T00:26:16;102472.97;;;-4.51;69.20
29825;BME280;16713;52.916;12.834;2024-01-11T00:28:43;102460.75;;;-4.47;69.02
29825;BME280;16713;52.916;12.834;2024-01-11T00:31:10;102443.75;;;-4.41;69.28
29825;BME280;16713;52.916;12.834;2024-01-11T00:33:37;102453.69;;;-4.42;69.44
29825;BME280;16713;52.916;12.834;2024-01-11T00:36:04;102431.16;;;-4.41;69.31
29825;BME280;16713;52.916;12.834;2024-01-11T00:38:30;102427.69;;;-4.30;69.70
29825;BME280;16713;52.916;12.834;2024-01-11T00:40:57;102418.53;;;-4.10;69.59
29825;BME280;16713;52.916;12.834;2024-01-11T00:43:23;102413.34;;;-4.24;68.96
29825;BME280;16713;52.916;12.834;2024-01-11T00:45:50;102420.16;;;-4.21;69.35
29825;BME280;16713;52.916;12.834;2024-01-11T00:48:16;102423.88;;;-4.22;70.70
29825;BME280;16713;52.916;12.834;2024-01-11T00:50:43;102431.03;;;-4.16;70.01
29825;BME280;16713;52.916;12.834;2024-01-11T00:53:09;102427.91;;;-4.13;70.26
29825;BME280;16713;52.916;12.834;2024-01-11T00:55:37;102427.44;;;-4.10;69.94
29825;BME280;16713;52.916;12.834;2024-01-11T00:58:03;102415.53;;;-4.02;69.44
29825;BME280;16713;52.916;12.834;2024-01-11T01:00:30;102408.75;;;-4.05;69.96
29825;BME280;16713;52.916;12.834;2024-01-11T01:02:56;102401.28;;;-4.03;69.97
29825;BME280;16713;52.916;12.834;2024-01-11T01:05:23;102412.38;;;-3.99;70.47
29825;BME280;16713;52.916;12.834;2024-01-11T01:07:49;102404.69;;;-3.96;70.27
29825;BME280;16713;52.916;12.834;2024-01-11T01:10:16;102406.56;;;-3.96;70.46
29825;BME280;16713;52.916;12.834;2024-01-11T01:12:42;102403.53;;;-4.00;70.50
29825;BME280;16713;52.916;12.834;2024-01-11T01:15:09;102402.47;;;-3.99;70.36
29825;BME280;16713;52.916;12.834;2024-01-11T01:17:37;102421.31;;;-3.87;70.14
29825;BME280;16713;52.916;12.834;2024-01-11T01:20:04;102448.13;;;-3.81;70.23
29825;BME280;16713;52.916;12.834;2024-01-11T01:22:30;102438.53;;;-3.77;70.29
29825;BME280;16713;52.916;12.834;2024-01-11T01:24:57;102439.25;;;-3.70;70.44
29825;BME280;16713;52.916;12.834;2024-01-11T01:27:23;102444.75;;;-3.65;70.53
29825;BME280;16713;52.916;12.834;2024-01-11T01:29:51;102428.50;;;-3.70;70.62
29825;BME280;16713;52.916;12.834;2024-01-11T01:32:17;102445.13;;;-3.61;71.17
29825;BME280;16713;52.916;12.834;2024-01-11T01:34:44;102459.38;;;-3.61;70.97
29825;BME280;16713;52.916;12.834;2024-01-11T01:37:14;102458.34;;;-3.60;70.83
29825;BME280;16713;52.916;12.834;2024-01-11T01:39:41;102461.47;;;-3.63;71.48
29825;BME280;16713;52.916;12.834;2024-01-11T01:42:08;102453.75;;;-3.59;70.79
29825;BME280;16713;52.916;12.834;2024-01-11T01:44:34;102452.03;;;-3.54;71.37
29825;BME280;16713;52.916;12.834;2024-01-11T01:47:02;102467.59;;;-3.44;70.47
29825;BME280;16713;52.916;12.834;2024-01-11T01:49:30;102458.81;;;-3.51;71.42
29825;BME280;16713;52.916;12.834;2024-01-11T01:51:57;102460.94;;;-3.42;70.86
29825;BME280;16713;52.916;12.834;2024-01-11T01:54:24;102454.28;;;-3.39;70.80
29825;BME280;16713;52.916;12.834;2024-01-11T01:56:51;102443.16;;;-3.43;70.87
29825;BME280;16713;52.916;12.834;2024-01-11T01:59:19;102433.09;;;-3.47;70.97
29825;BME280;16713;52.916;12.834;2024-01-11T02:01:46;102428.75;;;-3.48;71.94
29825;BME280;16713;52.916;12.834;2024-01-11T02:04:13;102444.56;;;-3.40;71.82
29825;BME280;16713;52.916;12.834;2024-01-11T02:06:46;102443.75;;;-3.41;71.60
29825;BME280;16713;52.916;12.834;2024-01-11T02:09:13;102437.66;;;-3.48;72.04
29825;BME280;16713;52.916;12.834;2024-01-11T02:11:44;102432.75;;;-3.51;71.78
29825;BME280;16713;52.916;12.834;2024-01-11T02:14:11;102424.31;;;-3.54;71.72
29825;BME280;16713;52.916;12.834;2024-01-11T02:16:38;102419.53;;;-3.52;71.62
29825;BME280;16713;52.916;12.834;2024-01-11T02:19:08;102429.34;;;-3.46;72.06
29825;BME280;16713;52.916;12.834;2024-01-11T02:21:41;102424.91;;;-3.52;72.03
29825;BME280;16713;52.916;12.834;2024-01-11T02:24:09;102427.63;;;-3.41;71.78
29825;BME280;16713;52.916;12.834;2024-01-11T02:26:36;102427.97;;;-3.49;71.80
29825;BME280;16713;52.916;12.834;2024-01-11T02:29:02;102428.78;;;-3.37;71.16
29825;BME280;16713;52.916;12.834;2024-01-11T02:31:29;102420.59;;;-3.42;71.50
29825;BME280;16713;52.916;12.834;2024-01-11T02:33:56;102428.53;;;-3.35;72.16
29825;BME280;16713;52.916;12.834;2024-01-11T02:36:23;102435.72;;;-3.29;72.09
29825;BME280;16713;52.916;12.834;2024-01-11T02:38:50;102428.91;;;-3.32;72.27
29825;BME280;16713;52.916;12.834;2024-01-11T02:41:18;102427.38;;;-3.16;71.94
29825;BME280;16713;52.916;12.834;2024-01-11T02:43:48;102419.78;;;-3.19;72.02
29825;BME280;16713;52.916;12.834;2024-01-11T02:46:15;102416.16;;;-3.25;71.96
29825;BME280;16713;52.916;12.834;2024-01-11T02:48:42;102417.44;;;-3.16;71.85
29825;BME280;16713;52.916;12.834;2024-01-11T02:51:09;102429.41;;;-3.12;71.60
29825;BME280;16713;52.916;12.834;2024-01-11T02:53:36;102436.88;;;-3.02;71.93
29825;BME280;16713;52.916;12.834;2024-01-11T02:56:03;102430.19;;;-3.00;71.61
29825;BME280;16713;52.916;12.834;2024-01-11T02:58:29;102431.28;;;-3.01;71.64
29825;BME280;16713;52.916;12.834;2024-01-11T03:00:56;102433.72;;;-2.99;71.71
29825;BME280;16713;52.916;12.834;2024-01-11T03:03:22;102426.78;;;-2.95;71.79
29825;BME280;16713;52.916;12.834;2024-01-11T03:05:49;102433.00;;;-2.95;71.07
29825;BME280;16713;52.916;12.834;2024-01-11T03:08:16;102434.63;;;-2.94;71.28
29825;BME280;16713;52.916;12.834;2024-01-11T03:10:42;102428.47;;;-2.94;71.67
29825;BME280;16713;52.916;12.834;2024-01-11T03:13:09;102436.66;;;-2.89;71.41
29825;BME280;16713;52.916;12.834;2024-01-11T03:15:35;102429.59;;;-2.90;71.25
29825;BME280;16713;52.916;12.834;2024-01-11T03:18:02;102429.38;;;-2.77;71.52
29825;BME280;16713;52.916;12.834;2024-01-11T03:20:29;102407.84;;;-2.89;71.19
29825;BME280;16713;52.916;12.834;2024-01-11T03:22:56;102399.16;;;-2.91;71.27
29825;BME280;16713;52.916;12.834;2024-01-11T03:25:22;102388.41;;;-2.91;71.36
29825;BME280;16713;52.916;12.834;2024-01-11T03:27:49;102393.22;;;-2.81;71.58
29825;BME280;16713;52.916;12.834;2024-01-11T03:30:15;102376.47;;;-2.83;72.05
29825;BME280;16713;52.916;12.834;2024-01-11T03:32:42;102377.06;;;-2.93;71.81
29825;BME280;16713;52.916;12.834;2024-01-11T03:35:09;102377.63;;;-2.91;71.85
29825;BME280;16713;52.916;12.834;2024-01-11T03:37:36;102377.38;;;-2.78;71.77
29825;BME280;16713;52.916;12.834;2024-01-11T03:40:03;102370.94;;;-2.77;71.06
29825;BME280;16713;52.916;12.834;2024-01-11T03:42:30;102360.06;;;-2.82;71.06
29825;BME280;16713;52.916;12.834;2024-01-11T03:44:56;102369.19;;;-2.83;71.64
29825;BME280;16713;52.916;12.834;2024-01-11T03:47:23;102390.28;;;-2.80;72.15
29825;BME280;16713;52.916;12.834;2024-01-11T03:49:49;102392.13;;;-2.68;71.44
29825;BME280;16713;52.916;12.834;2024-01-11T03:52:16;102398.06;;;-2.66;71.32
29825;BME280;16713;52.916;12.834;2024-01-11T03:54:42;102388.94;;;-2.65;71.12
29825;BME280;16713;52.916;12.834;2024-01-11T03:57:09;102390.72;;;-2.71;71.92
29825;BME280;16713;52.916;12.834;2024-01-11T03:59:35;102377.34;;;-2.66;71.92
29825;BME280;16713;52.916;12.834;2024-01-11T04:02:02;102382.72;;;-2.66;72.13
29825;BME280;16713;52.916;12.834;2024-01-11T04:04:28;102389.63;;;-2.58;70.73
29825;BME280;16713;52.916;12.834;2024-01-11T04:06:54;102382.25;;;-2.63;71.14
29825;BME280;16713;52.916;12.834;2024-01-11T04:09:21;102394.69;;;-2.62;71.50
29825;BME280;16713;52.916;12.834;2024-01-11T04:11:47;102387.03;;;-2.53;71.19
29825;BME280;16713;52.916;12.834;2024-01-11T04:14:14;102388.34;;;-2.56;71.21
29825;BME280;16713;52.916;12.834;2024-01-11T04:16:41;102389.25;;;-2.50;71.46
29825;BME280;16713;52.916;12.834;2024-01-11T04:19:08;102385.63;;;-2.44;72.22
29825;BME280;16713;52.916;12.834;2024-01-11T04:21:35;102391.81;;;-2.44;71.80
29825;BME280;16713;52.916;12.834;2024-01-11T04:24:03;102390.13;;;-2.33;71.71
29825;BME280;16713;52.916;12.834;2024-01-11T04:26:30;102376.06;;;-2.35;71.46
29825;BME280;16713;52.916;12.834;2024-01-11T04:28:56;102354.88;;;-2.32;72.22
29825;BME280;16713;52.916;12.834;2024-01-11T04:31:29;102352.03;;;-2.25;71.82
29825;BME280;16713;52.916;12.834;2024-01-11T04:33:55;102357.25;;;-2.19;71.36
29825;BME280;16713;52.916;12.834;2024-01-11T04:36:22;102363.94;;;-2.21;71.40
29825;BME280;16713;52.916;12.834;2024-01-11T04:38:49;102346.63;;;-2.25;71.57
29825;BME280;16713;52.916;12.834;2024-01-11T04:41:15;102346.72;;;-2.20;72.15
29825;BME280;16713;52.916;12.834;2024-01-11T04:43:43;102352.78;;;-2.13;72.16
29825;BME280;16713;52.916;12.834;2024-01-11T04:46:16;102357.91;;;-2.12;71.80
29825;BME280;16713;52.916;12.834;2024-01-11T04:48:44;102363.31;;;-2.12;71.86
29825;BME280;16713;52.916;12.834;2024-01-11T04:51:12;102362.25;;;-2.11;71.38
29825;BME280;16713;52.916;12.834;2024-01-11T04:53:43;102360.16;;;-2.09;72.02
29825;BME280;16713;52.916;12.834;2024-01-11T04:56:11;102367.03;;;-2.01;71.53
29825;BME280;16713;52.916;12.834;2024-01-11T04:58:42;102362.13;;;-2.04;71.86
29825;BME280;16713;52.916;12.834;2024-01-11T05:01:12;102371.34;;;-2.00;71.08
29825;BME280;16713;52.916;12.834;2024-01-11T05:03:39;102367.16;;;-2.08;72.21
29825;BME280;16713;52.916;12.834;2024-01-11T05:06:06;102370.84;;;-1.97;71.61
29825;BME280;16713;52.916;12.834;2024-01-11T05:08:32;102379.13;;;-1.87;71.36
29825;BME280;16713;52.916;12.834;2024-01-11T05:10:59;102376.09;;;-1.91;71.14
29825;BME280;16713;52.916;12.834;2024-01-11T05:13:26;102368.44;;;-1.82;71.74
29825;BME280;16713;52.916;12.834;2024-01-11T05:15:52;102366.22;;;-1.85;71.04
29825;BME280;16713;52.916;12.834;2024-01-11T05:18:19;102362.13;;;-1.88;71.56
29825;BME280;16713;52.916;12.834;2024-01-11T05:20:45;102369.16;;;-1.87;71.52
29825;BME280;16713;52.916;12.834;2024-01-11T05:23:12;102367.09;;;-1.80;70.81
29825;BME280;16713;52.916;12.834;2024-01-11T05:25:39;102365.63;;;-1.87;71.79
29825;BME280;16713;52.916;12.834;2024-01-11T05:28:05;102362.78;;;-1.81;72.10
29825;BME280;16713;52.916;12.834;2024-01-11T05:30:33;102352.25;;;-1.82;71.24
29825;BME280;16713;52.916;12.834;2024-01-11T05:32:59;102337.19;;;-1.78;72.01
29825;BME280;16713;52.916;12.834;2024-01-11T05:35:26;102349.31;;;-1.81;70.87
29825;BME280;16713;52.916;12.834;2024-01-11T05:37:56;102344.50;;;-1.79;71.82
29825;BME280;16713;52.916;12.834;2024-01-11T05:40:22;102339.84;;;-1.83;72.51
29825;BME280;16713;52.916;12.834;2024-01-11T05:42:48;102338.19;;;-1.84;70.98
29825;BME280;16713;52.916;12.834;2024-01-11T05:45:15;102354.03;;;-1.88;71.84
29825;BME280;16713;52.916;12.834;2024-01-11T05:47:47;102359.16;;;-1.86;72.24
29825;BME280;16713;52.916;12.834;2024-01-11T05:50:14;102369.97;;;-1.86;72.13
29825;BME280;16713;52.916;12.834;2024-01-11T05:52:41;102368.09;;;-1.86;72.60
29825;BME280;16713;52.916;12.834;2024-01-11T05:55:08;102369.75;;;-1.85;71.74
29825;BME280;16713;52.916;12.834;2024-01-11T05:57:35;102373.25;;;-1.84;71.78
29825;BME280;16713;52.916;12.834;2024-01-11T06:00:01;102365.56;;;-1.76;72.60
29825;BME280;16713;52.916;12.834;2024-01-11T06:02:28;102348.06;;;-1.73;72.35
29825;BME280;16713;52.916;12.834;2024-01-11T06:04:55;102346.69;;;-1.76;72.08
29825;BME280;16713;52.916;12.834;2024-01-11T06:07:21;102350.28;;;-1.70;72.66
29825;BME280;16713;52.916;12.834;2024-01-11T06:09:47;102359.44;;;-1.71;72.11
29825;BME280;16713;52.916;12.834;2024-01-11T06:12:14;102355.44;;;-1.69;72.54
29825;BME280;16713;52.916;12.834;2024-01-11T06:14:41;102348.50;;;-1.65;73.15
29825;BME280;16713;52.916;12.834;2024-01-11T06:17:07;102335.34;;;-1.61;72.41
29825;BME280;16713;52.916;12.834;2024-01-11T06:19:37;102349.94;;;-1.57;71.58
29825;BME280;16713;52.916;12.834;2024-01-11T06:22:04;102333.47;;;-1.61;72.63
29825;BME280;16713;52.916;12.834;2024-01-11T06:24:32;102339.66;;;-1.60;72.36
29825;BME280;16713;52.916;12.834;2024-01-11T06:26:58;102355.03;;;-1.61;73.36
29825;BME280;16713;52.916;12.834;2024-01-11T06:29:25;102356.59;;;-1.65;72.69
29825;BME280;16713;52.916;12.834;2024-01-11T06:31:51;102340.16;;;-1.63;73.51
29825;BME280;16713;52.916;12.834;2024-01-11T06:34:18;102338.13;;;-1.56;72.55
29825;BME280;16713;52.916;12.834;2024-01-11T06:36:44;102342.75;;;-1.52;72.23
29825;BME280;16713;52.916;12.834;2024-01-11T06:39:11;102344.88;;;-1.54;71.72
29825;BME280;16713;52.916;12.834;2024-01-11T06:41:38;102336.03;;;-1.49;72.88
29825;BME280;16713;52.916;12.834;2024-01-11T06:44:05;102337.78;;;-1.43;71.66
29825;BME280;16713;52.916;12.834;2024-01-11T06:46:32;102339.06;;;-1.46;72.30
29825;BME280;16713;52.916;12.834;2024-01-11T06:48:58;102331.81;;;-1.45;72.90
29825;BME280;16713;52.916;12.834;2024-01-11T06:51:25;102335.88;;;-1.43;71.34
29825;BME280;16713;52.916;12.834;2024-01-11T06:53:51;102324.91;;;-1.36;71.76
29825;BME280;16713;52.916;12.834;2024-01-11T06:56:19;102327.78;;;-1.43;71.86
29825;BME280;16713;52.916;12.834;2024-01-11T06:58:47;102316.09;;;-1.48;72.11
29825;BME280;16713;52.916;12.834;2024-01-11T07:01:13;102336.38;;;-1.46;73.06
29825;BME280;16713;52.916;12.834;2024-01-11T07:03:40;102337.19;;;-1.45;71.71
29825;BME280;16713;52.916;12.834;2024-01-11T07:06:07;102342.09;;;-1.42;73.33
29825;BME280;16713;52.916;12.834;2024-01-11T07:08:33;102339.41;;;-1.42;72.97
29825;BME280;16713;52.916;12.834;2024-01-11T07:11:01;102319.19;;;-1.40;72.72
29825;BME280;16713;52.916;12.834;2024-01-11T07:13:30;102318.06;;;-1.44;73.14
29825;BME280;16713;52.916;12.834;2024-01-11T07:16:00;102307.44;;;-1.50;72.89
29825;BME280;16713;52.916;12.834;2024-01-11T07:18:26;102306.00;;;-1.36;73.22
29825;BME280;16713;52.916;12.834;2024-01-11T07:20:56;102310.91;;;-1.33;71.93
29825;BME280;16713;52.916;12.834;2024-01-11T07:23:22;102319.34;;;-1.30;72.64
29825;BME280;16713;52.916;12.834;2024-01-11T07:25:49;102326.13;;;-1.27;72.39
29825;BME280;16713;52.916;12.834;2024-01-11T07:28:16;102339.56;;;-1.32;72.10
29825;BME280;16713;52.916;12.834;2024-01-11T07:30:43;102337.66;;;-1.32;72.74
29825;BME280;16713;52.916;12.834;2024-01-11T07:33:10;102341.94;;;-1.36;72.57
29825;BME280;16713;52.916;12.834;2024-01-11T07:35:37;102330.97;;;-1.29;72.75
29825;BME280;16713;52.916;12.834;2024-01-11T07:38:04;102324.47;;;-1.28;72.54
29825;BME280;16713;52.916;12.834;2024-01-11T07:40:30;102328.88;;;-1.22;71.56
29825;BME280;16713;52.916;12.834;2024-01-11T07:43:01;102326.38;;;-1.28;72.52
29825;BME280;16713;52.916;12.834;2024-01-11T07:45:28;102325.44;;;-1.17;71.63
29825;BME280;16713;52.916;12.834;2024-01-11T07:47:54;102318.66;;;-1.20;72.06
29825;BME280;16713;52.916;12.834;2024-01-11T07:50:21;102326.81;;;-1.15;72.32
29825;BME280;16713;52.916;12.834;2024-01-11T07:52:47;102324.63;;;-1.18;71.45
29825;BME280;16713;52.916;12.834;2024-01-11T07:55:14;102324.06;;;-1.20;73.19
29825;BME280;16713;52.916;12.834;2024-01-11T07:57:40;102335.69;;;-1.19;72.96
29825;BME280;16713;52.916;12.834;2024-01-11T08:00:07;102336.19;;;-1.22;72.93
29825;BME280;16713;52.916;12.834;2024-01-11T08:02:34;102330.78;;;-1.22;73.55
29825;BME280;16713;52.916;12.834;2024-01-11T08:05:01;102318.06;;;-1.22;72.52
29825;BME280;16713;52.916;12.834;2024-01-11T08:07:28;102324.06;;;-1.20;72.71
29825;BME280;16713;52.916;12.834;2024-01-11T08:09:55;102329.69;;;-1.21;72.19
29825;BME280;16713;52.916;12.834;2024-01-11T08:12:21;102329.94;;;-1.23;72.03
29825;BME280;16713;52.916;12.834;2024-01-11T08:14:48;102332.22;;;-1.15;72.94
29825;BME280;16713;52.916;12.834;2024-01-11T08:17:15;102327.56;;;-1.19;72.25
29825;BME280;16713;52.916;12.834;2024-01-11T08:19:42;102323.81;;;-1.18;72.98
29825;BME280;16713;52.916;12.834;2024-01-11T08:22:10;102315.69;;;-1.18;72.99
29825;BME280;16713;52.916;12.834;2024-01-11T08:24:37;102315.19;;;-1.15;72.48
29825;BME280;16713;52.916;12.834;2024-01-11T08:27:04;102315.94;;;-1.20;73.70
29825;BME280;16713;52.916;12.834;2024-01-11T08:29:32;102317.09;;;-1.16;72.01
29825;BME280;16713;52.916;12.834;2024-01-11T08:32:00;102304.66;;;-1.17;73.05
29825;BME280;16713;52.916;12.834;2024-01-11T08:34:49;102306.06;;;-1.14;72.93
29825;BME280;16713;52.916;12.834;2024-01-11T08:37:15;102301.44;;;-1.14;73.50
29825;BME280;16713;52.916;12.834;2024-01-11T08:39:42;102303.84;;;-1.17;72.47
29825;BME280;16713;52.916;12.834;2024-01-11T08:42:09;102293.84;;;-1.17;73.69
29825;BME280;16713;52.916;12.834;2024-01-11T08:44:35;102278.41;;;-1.21;73.45
29825;BME280;16713;52.916;12.834;2024-01-11T08:47:02;102283.63;;;-1.15;73.27
29825;BME280;16713;52.916;12.834;2024-01-11T08:49:30;102280.41;;;-1.12;73.18
29825;BME280;16713;52.916;12.834;2024-01-11T08:51:56;102264.53;;;-1.08;72.56
29825;BME280;16713;52.916;12.834;2024-01-11T08:54:23;102263.53;;;-1.02;73.08
29825;BME280;16713;52.916;12.834;2024-01-11T08:56:49;102243.00;;;-1.03;72.31
29825;BME280;16713;52.916;12.834;2024-01-11T08:59:16;102232.06;;;-0.92;72.21
29825;BME280;16713;52.916;12.834;2024-01-11T09:01:42;102220.63;;;-0.99;72.50
29825;BME280;16713;52.916;12.834;2024-01-11T09:04:22;102207.00;;;-0.87;73.29
29825;BME280;16713;52.916;12.834;2024-01-11T09:06:49;102221.00;;;-0.90;72.99
29825;BME280;16713;52.916;12.834;2024-01-11T09:09:15;102240.25;;;-0.82;73.17
29825;BME280;16713;52.916;12.834;2024-01-11T09:11:43;102251.94;;;-0.76;71.97
29825;BME280;16713;52.916;12.834;2024-01-11T09:14:10;102257.59;;;-0.78;72.72
29825;BME280;16713;52.916;12.834;2024-01-11T09:16:37;102258.31;;;-0.87;72.47
29825;BME280;16713;52.916;12.834;2024-01-11T09:19:06;102272.59;;;-0.92;71.94
29825;BME280;16713;52.916;12.834;2024-01-11T09:21:32;102290.28;;;-0.79;72.40
29825;BME280;16713;52.916;12.834;2024-01-11T09:23:59;102295.69;;;-0.79;72.11
29825;BME280;16713;52.916;12.834;2024-01-11T09:26:25;102289.47;;;-0.80;71.57
29825;BME280;16713;52.916;12.834;2024-01-11T09:28:52;102299.22;;;-0.79;71.84
29825;BME280;16713;52.916;12.834;2024-01-11T09:31:18;102283.59;;;-0.72;72.30
29825;BME280;16713;52.916;12.834;2024-01-11T09:33:45;102280.44;;;-0.64;71.70
29825;BME280;16713;52.916;12.834;2024-01-11T09:36:13;102288.03;;;-0.61;71.58
29825;BME280;16713;52.916;12.834;2024-01-11T09:38:39;102288.16;;;-0.51;71.52
29825;BME280;16713;52.916;12.834;2024-01-11T09:41:08;102296.28;;;-0.51;71.23
29825;BME280;16713;52.916;12.834;2024-01-11T09:43:40;102304.91;;;-0.54;71.49
29825;BME280;16713;52.916;12.834;2024-01-11T09:46:09;102298.34;;;-0.58;71.63
29825;BME280;16713;52.916;12.834;2024-01-11T09:48:38;102300.75;;;-0.61;71.54
29825;BME280;16713;52.916;12.834;2024-01-11T09:51:08;102295.09;;;-0.60;71.16
29825;BME280;16713;52.916;12.834;2024-01-11T09:53:39;102302.91;;;-0.63;71.48
29825;BME280;16713;52.916;12.834;2024-01-11T09:56:10;102308.25;;;-0.68;71.03
29825;BME280;16713;52.916;12.834;2024-01-11T09:58:38;102305.28;;;-0.67;71.17
29825;BME280;16713;52.916;12.834;2024-01-11T10:01:11;102310.56;;;-0.55;71.45
29825;BME280;16713;52.916;12.834;2024-01-11T10:03:41;102302.00;;;-0.69;70.37
29825;BME280;16713;52.916;12.834;2024-01-11T10:06:08;102302.91;;;-0.63;72.37
29825;BME280;16713;52.916;12.834;2024-01-11T10:08:35;102297.94;;;-0.71;71.74
29825;BME280;16713;52.916;12.834;2024-01-11T10:11:03;102292.84;;;-0.68;71.72
29825;BME280;16713;52.916;12.834;2024-01-11T10:13:30;102290.69;;;-0.66;71.60
29825;BME280;16713;52.916;12.834;2024-01-11T10:16:05;102297.44;;;-0.68;71.40
29825;BME280;16713;52.916;12.834;2024-01-11T10:18:32;102301.72;;;-0.72;71.93
29825;BME280;16713;52.916;12.834;2024-01-11T10:20:59;102297.19;;;-0.67;73.11
29825;BME280;16713;52.916;12.834;2024-01-11T10:23:26;102284.13;;;-0.75;72.77
29825;BME280;16713;52.916;12.834;2024-01-11T10:25:58;102275.75;;;-0.73;72.90
29825;BME280;16713;52.916;12.834;2024-01-11T10:28:27;102274.72;;;-0.72;72.81
29825;BME280;16713;52.916;12.834;2024-01-11T10:30:54;102267.78;;;-0.63;72.21
29825;BME280;16713;52.916;12.834;2024-01-11T10:33:22;102256.00;;;-0.52;71.50
29825;BME280;16713;52.916;12.834;2024-01-11T10:35:49;102264.91;;;-0.52;71.71
29825;BME280;16713;52.916;12.834;2024-01-11T10:38:17;102273.75;;;-0.61;72.45
29825;BME280;16713;52.916;12.834;2024-01-11T10:40:44;102264.69;;;-0.72;71.24
29825;BME280;16713;52.916;12.834;2024-01-11T10:43:11;102259.97;;;-0.60;71.68
29825;BME280;16713;52.916;12.834;2024-01-11T10:45:38;102270.47;;;-0.63;71.73
29825;BME280;16713;52.916;12.834;2024-01-11T10:48:15;102274.84;;;-0.57;72.62
29825;BME280;16713;52.916;12.834;2024-01-11T10:50:44;102264.56;;;-0.60;71.82
29825;BME280;16713;52.916;12.834;2024-01-11T10:53:40;102264.81;;;-0.62;71.02
29825;BME280;16713;52.916;12.834;2024-01-11T10:56:09;102267.25;;;-0.60;72.08
29825;BME280;16713;52.916;12.834;2024-01-11T10:58:42;102277.88;;;-0.54;71.12
29825;BME280;16713;52.916;12.834;2024-01-11T11:01:13;102284.69;;;-0.46;71.06
29825;BME280;16713;52.916;12.834;2024-01-11T11:03:40;102285.78;;;-0.47;72.00
29825;BME280;16713;52.916;12.834;2024-01-11T11:06:11;102283.69;;;-0.40;70.91
29825;BME280;16713;52.916;12.834;2024-01-11T11:08:41;102289.31;;;-0.42;70.71
29825;BME280;16713;52.916;12.834;2024-01-11T11:11:08;102290.28;;;-0.53;71.30
29825;BME280;16713;52.916;12.834;2024-01-11T11:13:35;102306.06;;;-0.45;71.83
29825;BME280;16713;52.916;12.834;2024-01-11T11:16:02;102307.25;;;-0.36;71.00
29825;BME280;16713;52.916;12.834;2024-01-11T11:18:31;102303.81;;;-0.53;71.42
29825;BME280;16713;52.916;12.834;2024-01-11T11:20:58;102304.50;;;-0.41;70.65
29825;BME280;16713;52.916;12.834;2024-01-11T11:23:25;102311.72;;;-0.46;70.65
29825;BME280;16713;52.916;12.834;2024-01-11T11:25:54;102314.16;;;-0.45;70.67
29825;BME280;16713;52.916;12.834;2024-01-11T11:28:23;102309.59;;;-0.44;71.44
29825;BME280;16713;52.916;12.834;2024-01-11T11:30:52;102303.06;;;-0.48;71.71
29825;BME280;16713;52.916;12.834;2024-01-11T11:33:22;102296.59;;;-0.47;70.56
29825;BME280;16713;52.916;12.834;2024-01-11T11:35:54;102291.94;;;-0.52;71.10
29825;BME280;16713;52.916;12.834;2024-01-11T11:38:24;102292.81;;;-0.46;71.43
29825;BME280;16713;52.916;12.834;2024-01-11T11:40:53;102295.25;;;-0.45;71.56
29825;BME280;16713;52.916;12.834;2024-01-11T11:43:23;102274.19;;;-0.43;70.91
29825;BME280;16713;52.916;12.834;2024-01-11T11:45:50;102270.06;;;-0.50;72.10
29825;BME280;16713;52.916;12.834;2024-01-11T11:53:33;102266.66;;;-0.41;72.11
29825;BME280;16713;52.916;12.834;2024-01-11T11:56:01;102261.75;;;-0.44;72.31
29825;BME280;16713;52.916;12.834;2024-01-11T11:58:29;102259.63;;;-0.37;71.96
29825;BME280;16713;52.916;12.834;2024-01-11T12:01:00;102257.50;;;-0.35;72.13
29825;BME280;16713;52.916;12.834;2024-01-11T12:03:34;102263.94;;;-0.41;71.85
29825;BME280;16713;52.916;12.834;2024-01-11T12:06:06;102263.53;;;-0.28;71.75
29825;BME280;16713;52.916;12.834;2024-01-11T12:08:34;102255.88;;;-0.36;72.36
29825;BME280;16713;52.916;12.834;2024-01-11T12:11:02;102248.09;;;-0.32;71.64
29825;BME280;16713;52.916;12.834;2024-01-11T12:13:29;102230.47;;;-0.35;71.42
29825;BME280;16713;52.916;12.834;2024-01-11T12:15:57;102239.50;;;-0.24;71.94
29825;BME280;16713;52.916;12.834;2024-01-11T12:18:23;102233.53;;;-0.26;71.38
29825;BME280;16713;52.916;12.834;2024-01-11T12:20:51;102228.59;;;-0.34;72.21
29825;BME280;16713;52.916;12.834;2024-01-11T12:23:19;102237.28;;;-0.27;72.10
29825;BME280;16713;52.916;12.834;2024-01-11T12:25:46;102219.75;;;-0.25;70.81
29825;BME280;16713;52.916;12.834;2024-01-11T12:28:14;102222.50;;;-0.20;71.49
29825;BME280;16713;52.916;12.834;2024-01-11T12:30:40;102219.19;;;-0.27;71.92
29825;BME280;16713;52.916;12.834;2024-01-11T12:33:09;102226.31;;;-0.16;71.29
29825;BME280;16713;52.916;12.834;2024-01-11T12:35:37;102227.38;;;-0.17;72.06
29825;BME280;16713;52.916;12.834;2024-01-11T12:38:05;102226.03;;;-0.14;70.62
29825;BME280;16713;52.916;12.834;2024-01-11T12:40:33;102233.31;;;-0.20;71.32
29825;BME280;16713;52.916;12.834;2024-01-11T12:43:07;102223.81;;;-0.22;72.12
29825;BME280;16713;52.916;12.834;2024-01-11T12:45:34;102220.31;;;-0.23;71.66
29825;BME280;16713;52.916;12.834;2024-01-11T12:48:02;102220.31;;;-0.23;72.20